Alle Lego sets met een set nummer van 41000 tot 42000

Sorteer op
Titel van setPrijsVerschilToegevoegd
Plezier op het water (41000)€ 5,49- € 0,50 (8%)2012-12-17
Oefenzaal (41004)€ 24,95+ € 4,96 (25%)2012-12-17
Stephanie's Soccer Practice (41011)€ 14,95+ € 4,96 (50%)2012-12-17
LEGO® Friends Advent Calendar (41016)€ 19,98- € 3,01 (13%)2013-09-25
Squirrel's Tree House (41017)€ 3,95- € 0,04 (1%)2012-12-17
Cat's Playground (41018)€ 3,95- € 0,04 (1%)2012-12-17
Emma's reddingspost (41028)€ 10,95+ € 0,96 (10%)2013-12-27
Stephanie's lammetje (41029)€ 9,95- € 0,04 (0%)2013-12-27
Eerste Hulp Junglebike (41032)€ 15,99+ € 1,00 (7%)2014-05-31
LEGO® Friends Adventkalender (41040)€ 19,95- € 5,04 (20%)2014-09-02
Het paradijsje van Schildpad (41041)€ 3,25- € 1,24 (28%)2013-12-27
De tempel van Tijger (41042)€ 18,44+ € 13,95 (311%)2013-12-27
De fontein van Papegaai (41044)€ 4,95+ € 0,46 (10%)2014-05-14
De rivier van Bruine Beer (41046)€ 4,95+ € 0,46 (10%)2014-05-14
Panda bamboebos (41049)€ 3,25- € 1,24 (28%)2014-09-02
Heartlake winkelcentrum (41058)€ 89,95- € 20,04 (18%)2014-05-31
Jasmines exotische paleis (41061)€ 29,99+ € 3,00 (11%)2014-12-23
Elsa's fonkelende ijskasteel (41062)€ 39,95- € 5,04 (11%)2014-12-23
Laagste ooitRapunzels allermooiste dag (41065)€ 14,98- € 15,01 (50%)2016-05-26
Slee-avontuur met Anna & Kristoff (41066)€ 18,36- € 16,63 (48%)2015-12-04
Belle's betoverde kasteel (41067)€ 39,98- € 20,01 (33%)2016-05-26
Het kasteelfeest in Arendelle (41068)€ 42,11- € 27,88 (40%)2015-12-04
Een dag bij het zwembad met Treasure (41069)€ 5,98- € 4,01 (40%)2015-12-15
Aira's werkplaats (41071)€ 9,99--2015-03-01
Naida's avonturenschip (41073)€ 26,95- € 6,04 (18%)2015-03-01
De Treetop Hideaway van de Elfen (41075)€ 52,99- € 2,00 (4%)2015-03-01
Aira’s Pegasus slee (41077)€ 36,95- € 8,04 (18%)2015-06-01
Heartlake vuurtoren (41094)€ 33,74- € 11,25 (25%)2014-12-25
Emma's huis (41095)€ 54,99- € 20,00 (27%)2014-12-25
Heartlake luchtballon (41097)€ 22,95- € 10,04 (30%)2014-12-25
Andrea’s Toeristenkiosk (41098)€ 7,95- € 2,04 (20%)2015-06-01
Heartlake Skate Park (41099)€ 16,99- € 3,00 (15%)2015-06-01
Heartlake Privéjet (41100)€ 32,99+ € 6,00 (22%)2015-06-01
Heartlake Grand Hotel (41101)€ 89,92- € 50,07 (36%)2015-06-01
LEGO® Friends Adventkalender (41102)€ 19,95- € 5,04 (20%)2015-09-01
Popster Opnamestudio (41103)€ 11,95- € 3,04 (20%)2015-06-01
Popster Kleedkamer (41104)€ 27,95- € 5,04 (15%)2015-06-01
Popster Podium (41105)€ 34,99- € 15,00 (30%)2015-06-01
Popster Toerbus (41106)€ 39,95- € 25,04 (39%)2015-06-01
Heartlake Supermarkt (41108)€ 39,95- € 5,04 (11%)2015-06-01
Heartlake Vliegveld (41109)€ 84,95- € 15,04 (15%)2015-06-01
Verjaardagsfeest (41110)€ 15,95- € 4,04 (20%)2015-12-15
Feesttrein (41111)€ 7,95- € 2,04 (20%)2015-12-15
Feesttaartjes (41112)€ 3,95- € 2,04 (34%)2015-12-15
Cadeauwinkel (41113)€ 3,95- € 2,04 (34%)2015-12-15
Schoonheidssalon (41114)€ 3,99- € 2,00 (33%)2015-12-15
Emma's atelier (41115)€ 7,95- € 2,04 (20%)2015-12-19
Olivia's onderzoeksvoertuig (41116)€ 14,95- € 3,04 (17%)2015-12-19
Popster tv-studio (41117)€ 15,95- € 4,04 (20%)2015-12-19
Heartlake supermarkt (41118)€ 25,95- € 9,04 (26%)2015-12-19
Heartlake cupcake café (41119)€ 30,88- € 14,11 (31%)2015-12-19
Avonturenkamp boogschieten (41120)€ 7,99- € 2,00 (20%)2015-12-15
Avonturenkamp wildwatervaren (41121)€ 25,95- € 9,04 (26%)2015-12-15
Avonturenkamp boomhuis (41122)€ 44,95- € 35,04 (44%)2015-12-15
Veulen wasplaats (41123)€ 7,95- € 2,04 (20%)2016-05-29
Heartlake puppy dagverblijf (41124)€ 22,86- € 12,13 (35%)2016-05-27
Paardendokter trailer (41125)€ 29,88- € 10,11 (25%)2016-05-27
Heartlake paardrijclub (41126)€ 44,88- € 25,11 (36%)2016-05-27
Pretpark spelletjeshal (41127)€ 12,60- € 5,39 (30%)2016-05-27
Pretpark ruimtevlucht (41128)€ 15,98- € 4,01 (20%)2016-05-27
Pretpark hotdog-wagen (41129)€ 19,99- € 10,00 (33%)2016-05-27
Pretpark achtbaan (41130)€ 74,88- € 25,11 (25%)2016-05-27
LEGO® Friends adventkalender (41131)€ 14,99- € 10,00 (40%)2016-08-31
Heartlake feestwinkel (41132)€ 29,95- € 5,04 (14%)2016-05-29
Pretpark botsauto's (41133)€ 30,77- € 14,22 (32%)2016-05-29
Laagste ooitHeartlake Theaterschool (41134)€ 89,99--2016-05-29
Livi's popsterrenhuis (41135)€ 54,99- € 5,00 (8%)2015-12-15
Daisy's schoonheidssalon (41140)€ 5,75- € 6,24 (52%)2015-12-15
Pumpkins koninklijke koets (41141)€ 9,50- € 2,49 (21%)2015-12-15
Palace Pets koninklijk kasteel (41142)€ 15,02- € 4,97 (25%)2015-12-19
Berry's keuken (41143)€ 5,73- € 2,26 (28%)2016-12-01
Petite's koninklijke stal (41144)€ 5,77- € 6,22 (52%)2016-12-01
Anna's sneeuwavontuur (41147)€ 13,88- € 6,11 (31%)2016-12-01
Laagste ooitElsa's magische ijspaleis (41148)€ 49,72- € 25,27 (34%)2016-12-01
Laagste ooitVaiana's eilandavontuur (41149)€ 18,44- € 11,55 (39%)2016-12-01
Laagste ooitVaiana's oceaanreis (41150)€ 29,98- € 15,01 (33%)2016-12-01
Emily Jones & de baby winddraak (41171)€ 13,95+ € 3,96 (40%)2016-03-01
Het waterdraak avontuur (41172)€ 15,95- € 4,04 (20%)2016-03-01
De lavagrot van de vuurdraak (41175)€ 32,98- € 12,01 (27%)2016-03-01
De geheime markt (41176)€ 48,05- € 21,94 (31%)2016-03-01
De kostbare kristalmijn (41177)€ 19,95- € 10,04 (33%)2016-05-26
Koninginnendraak redding (41179)€ 50,34- € 29,65 (37%)2016-05-26
Ragana's magische schaduwkasteel (41180)€ 61,30- € 38,69 (39%)2016-05-26
Laagste ooitNaida's gondel & de Goblin-dief (41181)€ 7,95- € 2,04 (20%)2017-03-01
Laagste ooitSophie Jones gevangen genomen (41182)€ 15,95- € 4,04 (20%)2017-03-01
Laagste ooitDe wrede draak van de Goblin-koning (41183)€ 24,99- € 10,00 (29%)2017-03-01
Laagste ooitAira's luchtschip & de jacht op het amulet (41184)€ 31,99- € 13,00 (29%)2017-03-01
Laagste ooitMagische redding uit het Goblin-dorp (41185)€ 52,95- € 12,04 (19%)2017-03-01
Laagste ooitBatgirl™ Batjet-achtervolging (41230)€ 17,98- € 7,01 (28%)2016-12-01
Harley Quinn™ schiet te hulp (41231)€ 22,98- € 12,01 (34%)2016-12-01
Superheldenschool (41232)€ 69,20- € 20,79 (23%)2016-12-01
Lashina™ tank (41233)€ 10,25- € 7,74 (43%)2016-12-01
Bumblebee™ helikopter (41234)€ 12,98- € 5,01 (28%)2016-12-01
Wonder Woman™ nachtverblijf (41235)€ 15,95- € 4,04 (20%)2016-12-01
Puppy kampioenschap (41300)€ 15,98- € 4,01 (20%)2016-12-01
Puppy optocht (41301)€ 11,98- € 6,01 (33%)2016-12-01
Laagste ooitPuppy verzorgplek (41302)€ 3,95- € 1,04 (21%)2016-12-01
Laagste ooitPuppy speeltuin (41303)€ 3,95- € 1,04 (21%)2016-12-01
Puppy verrassingen (41304)€ 3,95- € 1,04 (21%)2016-12-01
Laagste ooitEmma's fotostudio (41305)€ 7,95- € 2,04 (20%)2016-12-01
Mia's strandscooter (41306)€ 7,95- € 2,04 (20%)2016-12-01
Olivia's laboratorium (41307)€ 7,95- € 2,04 (20%)2016-12-01
Laagste ooitStephanies vriendschap-taartjes (41308)€ 7,95- € 2,04 (20%)2016-12-01
Andrea's muzikale duet (41309)€ 7,95- € 2,04 (20%)2016-12-01
Heartlake pakjesdienst (41310)€ 14,98- € 5,01 (25%)2016-12-01
Heartlake pizzeria (41311)€ 23,08- € 6,91 (23%)2016-12-01
Heartlake sporthal (41312)€ 30,88- € 14,11 (31%)2016-12-01
Heartlake zwembad (41313)€ 38,88- € 11,11 (22%)2016-12-01
Laagste ooitStephanies huis (41314)€ 49,88- € 25,11 (33%)2016-12-01
Gox (41536)€ 6,95+ € 1,96 (39%)2015-06-01
Jinky (41537)€ 6,95+ € 1,96 (39%)2015-06-01
Kamzo (41538)€ 6,95+ € 1,96 (39%)2015-06-01
Spugg (41542)€ 6,95+ € 1,96 (39%)2015-06-01
Turg (41543)€ 6,95+ € 1,96 (39%)2015-06-01
Tungster (41544)€ 6,95+ € 1,96 (39%)2015-06-01
Kuffs (41554)€ 3,95- € 0,04 (1%)2016-01-31
Busto (41555)€ 3,95- € 0,04 (1%)2016-01-31
Tiketz (41556)€ 3,99--2016-01-31
Jamzy (41560)€ 3,99--2016-01-31
Trumpsy (41562)€ 3,99--2016-01-31
Laagste ooitGobbol (41572)€ 3,95- € 0,04 (1%)2016-10-01
Laagste ooitSweepz (41573)€ 3,95- € 0,04 (1%)2016-10-01
Laagste ooitCompax (41574)€ 3,95- € 0,04 (1%)2016-10-01
Laagste ooitCobrax (41575)€ 3,95- € 0,04 (1%)2016-10-01
Laagste ooitSpinza (41576)€ 3,95- € 0,04 (1%)2016-10-01
Laagste ooitMysto (41577)€ 3,95- € 0,04 (1%)2016-10-01
Screeno (41578)€ 4,95+ € 0,96 (24%)2016-10-01
Laagste ooitCamsta (41579)€ 3,95- € 0,04 (1%)2016-10-01
Laagste ooitMyke (41580)€ 3,95- € 0,04 (1%)2016-10-01
Laagste ooitBatman™ (41585)€ 9,99--2017-02-01
Laagste ooitBatgirl™ (41586)€ 9,99--2017-02-01
Laagste ooitRobin™ (41587)€ 9,99--2017-02-01
Laagste ooitThe Joker™ (41588)€ 9,99--2017-02-01
Laagste ooitCaptain America (41589)€ 9,99--2017-02-01
Laagste ooitIron Man (41590)€ 9,99--2017-02-01
Laagste ooitBlack Widow (41591)€ 9,99--2017-02-01
Laagste ooitThe Hulk (41592)€ 9,99--2017-02-01
Laagste ooitCaptain Jack Sparrow (41593)€ 9,99--2017-02-24
Laagste ooitCaptain Armando Salazar (41594)€ 9,99--2017-02-24
Laagste ooitBelle (41595)€ 9,99--2017-02-03
Laagste ooitBeast (41596)€ 9,99--2017-02-03
4x4 Crawler Exclusive Edition (41999)€ 749,99+ € 570,00 (317%)2013-08-01

Ook niet meer leverbare sets laten zien